createdAt,value
2022-08-25T00:03:45.530Z,18.80
2022-08-25T00:08:39.181Z,18.80
2022-08-25T00:13:31.772Z,18.70
2022-08-25T00:18:24.121Z,18.60
2022-08-25T00:23:16.594Z,18.60
2022-08-25T00:28:10.341Z,18.50
2022-08-25T00:33:04.065Z,18.50
2022-08-25T00:37:56.603Z,18.40
2022-08-25T00:42:49.279Z,18.40
2022-08-25T00:47:41.716Z,18.50
2022-08-25T00:52:56.221Z,18.50
2022-08-25T00:58:07.066Z,18.40
2022-08-25T01:02:59.414Z,18.30
2022-08-25T01:07:52.864Z,18.20
2022-08-25T01:12:52.640Z,18.30
2022-08-25T01:17:56.655Z,18.20
2022-08-25T01:22:55.028Z,18.20
2022-08-25T01:27:47.648Z,18.10
2022-08-25T01:32:39.930Z,18.10
2022-08-25T01:37:35.038Z,18.10
2022-08-25T01:42:29.999Z,18.10
2022-08-25T01:47:22.707Z,18.20
2022-08-25T01:52:49.856Z,18.40
2022-08-25T01:57:42.695Z,18.50
2022-08-25T02:02:34.936Z,18.40
2022-08-25T02:07:28.545Z,18.50
2022-08-25T02:12:20.845Z,18.60
2022-08-25T02:17:13.022Z,18.60
2022-08-25T02:22:06.029Z,18.50
2022-08-25T02:26:59.204Z,18.40
2022-08-25T02:31:51.453Z,18.30
2022-08-25T02:36:44.105Z,18.20
2022-08-25T02:41:39.148Z,18.30
2022-08-25T02:46:32.361Z,18.30
2022-08-25T02:51:26.262Z,18.40
2022-08-25T02:56:19.996Z,18.50
2022-08-25T03:01:14.346Z,18.60
2022-08-25T03:06:11.052Z,18.70
2022-08-25T03:11:03.904Z,18.70
2022-08-25T03:15:56.336Z,18.70
2022-08-25T03:20:50.034Z,18.70
2022-08-25T03:26:00.966Z,18.70
2022-08-25T03:30:56.169Z,18.70
2022-08-25T03:35:49.837Z,18.80
2022-08-25T03:40:42.074Z,18.80
2022-08-25T03:45:34.428Z,18.90
2022-08-25T03:50:26.840Z,19.00
2022-08-25T03:55:19.119Z,18.80
2022-08-25T04:00:15.024Z,18.70
2022-08-25T04:05:08.472Z,18.60
2022-08-25T04:10:01.187Z,18.40
2022-08-25T04:14:53.592Z,18.30
2022-08-25T04:19:45.927Z,18.20
2022-08-25T04:24:38.221Z,18.10
2022-08-25T04:29:30.472Z,18.10
2022-08-25T04:34:29.543Z,18.20
2022-08-25T04:39:23.120Z,18.30
2022-08-25T04:44:15.824Z,18.40
2022-08-25T04:49:08.041Z,18.50
2022-08-25T04:54:02.063Z,18.60
2022-08-25T04:58:55.562Z,18.70
2022-08-25T05:03:52.704Z,18.70
2022-08-25T05:08:45.941Z,18.80
2022-08-25T05:13:38.618Z,19.00
2022-08-25T05:18:32.670Z,19.40
2022-08-25T05:23:25.263Z,19.70
2022-08-25T05:28:18.908Z,19.90
2022-08-25T05:33:12.473Z,20.10
2022-08-25T05:38:05.308Z,20.30
2022-08-25T05:42:58.001Z,20.50
2022-08-25T05:47:50.501Z,20.80
2022-08-25T05:52:42.997Z,21.10
2022-08-25T05:57:35.840Z,22.00
2022-08-25T06:02:41.692Z,23.10
2022-08-25T06:07:34.159Z,24.10
2022-08-25T06:12:26.609Z,24.60
2022-08-25T06:17:18.832Z,25.50
2022-08-25T06:22:11.075Z,26.60
2022-08-25T06:27:03.295Z,29.80
2022-08-25T06:31:55.665Z,32.00
2022-08-25T06:36:49.449Z,33.70
2022-08-25T06:41:42.490Z,34.80
2022-08-25T06:46:36.196Z,34.90
2022-08-25T06:51:28.982Z,36.40
2022-08-25T06:56:22.252Z,36.50
2022-08-25T07:01:29.108Z,36.60
2022-08-25T07:06:25.393Z,37.50
2022-08-25T07:11:18.524Z,38.50
2022-08-25T07:16:14.338Z,39.10
2022-08-25T07:21:08.787Z,39.50
2022-08-25T07:26:37.317Z,37.80
2022-08-25T07:31:30.696Z,34.70
2022-08-25T07:36:23.263Z,33.20
2022-08-25T07:41:15.560Z,33.00
2022-08-25T07:46:08.491Z,36.30
2022-08-25T07:51:07.447Z,36.20
2022-08-25T07:56:00.874Z,34.30
2022-08-25T08:00:53.539Z,33.70
2022-08-25T08:05:45.727Z,34.10
2022-08-25T08:11:04.020Z,36.60
2022-08-25T08:15:52.624Z,38.90
2022-08-25T08:20:47.401Z,40.30
2022-08-25T08:25:40.098Z,41.50
2022-08-25T08:30:32.818Z,42.60
2022-08-25T08:35:25.212Z,43.50
2022-08-25T08:40:19.961Z,43.10
2022-08-25T08:45:35.291Z,41.50
2022-08-25T08:50:46.621Z,38.70
2022-08-25T08:55:58.866Z,36.60
2022-08-25T09:00:54.885Z,34.90
2022-08-25T09:05:51.841Z,34.00
2022-08-25T09:11:10.164Z,33.40
2022-08-25T09:16:34.592Z,33.70
2022-08-25T09:21:51.061Z,34.30
2022-08-25T09:27:08.436Z,35.10
2022-08-25T09:32:02.221Z,35.00
2022-08-25T09:36:54.619Z,35.20
2022-08-25T09:41:51.294Z,37.30
2022-08-25T09:46:55.767Z,36.40
2022-08-25T09:51:48.563Z,36.50
2022-08-25T09:57:02.190Z,35.10
2022-08-25T10:01:57.533Z,34.30
2022-08-25T10:06:50.776Z,36.50
2022-08-25T10:11:48.184Z,37.80
2022-08-25T10:16:40.523Z,36.00
2022-08-25T10:21:41.575Z,34.00
2022-08-25T10:26:48.915Z,33.10
2022-08-25T10:32:18.682Z,31.50
2022-08-25T10:37:32.969Z,31.20
2022-08-25T10:42:31.847Z,33.80
2022-08-25T10:47:36.141Z,33.00
2022-08-25T10:52:57.486Z,32.00
2022-08-25T10:58:07.628Z,31.60
2022-08-25T11:03:25.566Z,33.70
2022-08-25T11:08:34.164Z,32.90
2022-08-25T11:13:42.272Z,34.00
2022-08-25T11:18:38.523Z,36.00
2022-08-25T11:23:50.148Z,37.40
2022-08-25T11:28:48.218Z,36.10
2022-08-25T11:33:40.703Z,35.10
2022-08-25T11:39:00.111Z,35.60
2022-08-25T11:44:26.771Z,35.20
2022-08-25T11:49:25.032Z,34.20
2022-08-25T11:54:30.351Z,33.60
2022-08-25T11:59:50.442Z,32.00
2022-08-25T12:04:45.046Z,31.60
2022-08-25T12:09:55.440Z,31.50
2022-08-25T12:14:48.052Z,31.30
2022-08-25T12:19:40.898Z,31.50
2022-08-25T12:24:48.261Z,31.60
2022-08-25T12:29:46.303Z,31.70
2022-08-25T12:35:07.114Z,31.80
2022-08-25T12:40:03.321Z,31.40
2022-08-25T12:45:32.900Z,31.30
2022-08-25T12:50:37.002Z,31.20
2022-08-25T12:55:29.936Z,31.50
2022-08-25T13:00:45.769Z,31.40
2022-08-25T13:06:08.195Z,31.60
2022-08-25T13:11:14.295Z,31.10
2022-08-25T13:16:15.694Z,30.90
2022-08-25T13:21:19.104Z,30.90
2022-08-25T13:26:27.055Z,31.10
2022-08-25T13:31:22.578Z,30.80
2022-08-25T13:36:36.138Z,30.70
2022-08-25T13:41:29.638Z,30.60
2022-08-25T13:46:26.230Z,30.40
2022-08-25T13:51:24.570Z,30.40
2022-08-25T13:56:43.519Z,30.00
2022-08-25T14:01:49.657Z,29.80
2022-08-25T14:06:42.706Z,29.80
2022-08-25T14:11:47.901Z,29.80
2022-08-25T14:16:48.560Z,30.10
2022-08-25T14:21:41.053Z,30.20
2022-08-25T14:26:34.750Z,30.20
2022-08-25T14:31:35.623Z,30.30
2022-08-25T14:36:30.248Z,30.40
2022-08-25T14:41:28.215Z,30.10
2022-08-25T14:46:23.394Z,29.80
2022-08-25T14:51:16.495Z,29.50
2022-08-25T14:56:10.351Z,29.40
2022-08-25T15:01:03.476Z,29.40
2022-08-25T15:05:55.939Z,29.40
2022-08-25T15:10:48.420Z,29.60
2022-08-25T15:15:52.965Z,29.70
2022-08-25T15:20:46.921Z,29.60
2022-08-25T15:25:43.340Z,29.40
2022-08-25T15:30:36.578Z,29.40
2022-08-25T15:35:29.370Z,29.20
2022-08-25T15:40:21.985Z,28.90
2022-08-25T15:45:14.592Z,28.70
2022-08-25T15:50:10.622Z,28.50
2022-08-25T15:55:03.799Z,28.30
2022-08-25T15:59:56.186Z,28.30
2022-08-25T16:04:51.701Z,28.30
2022-08-25T16:09:44.047Z,28.20
2022-08-25T16:14:38.875Z,28.10
2022-08-25T16:19:31.128Z,28.20
2022-08-25T16:24:23.842Z,28.20
2022-08-25T16:29:17.262Z,28.20
2022-08-25T16:34:10.090Z,28.10
2022-08-25T16:39:03.963Z,28.00
2022-08-25T16:44:04.595Z,27.90
2022-08-25T16:49:05.669Z,27.80
2022-08-25T16:54:18.548Z,27.70
2022-08-25T16:59:17.471Z,27.50
2022-08-25T17:04:11.928Z,27.40
2022-08-25T17:09:07.131Z,27.40
2022-08-25T17:14:01.398Z,27.30
2022-08-25T17:18:56.239Z,27.20
2022-08-25T17:23:48.792Z,27.10
2022-08-25T17:28:44.346Z,26.90
2022-08-25T17:33:37.271Z,26.80
2022-08-25T17:38:33.400Z,26.60
2022-08-25T17:43:27.748Z,26.50
2022-08-25T17:48:20.818Z,26.30
2022-08-25T17:53:13.989Z,26.20
2022-08-25T17:58:11.129Z,26.10
2022-08-25T18:03:06.977Z,26.00
2022-08-25T18:07:59.505Z,25.80
2022-08-25T18:12:53.100Z,25.60
2022-08-25T18:17:45.481Z,25.50
2022-08-25T18:22:38.826Z,25.40
2022-08-25T18:27:31.554Z,25.20
2022-08-25T18:32:26.239Z,25.10
2022-08-25T18:37:37.428Z,25.00
2022-08-25T18:42:29.795Z,24.90
2022-08-25T18:47:22.350Z,24.90
2022-08-25T18:52:15.057Z,24.90
2022-08-25T18:57:08.878Z,24.90
2022-08-25T19:02:03.233Z,24.80
2022-08-25T19:06:55.802Z,24.60
2022-08-25T19:11:49.076Z,24.50
2022-08-25T19:16:46.082Z,24.40
2022-08-25T19:21:40.208Z,24.30
2022-08-25T19:26:34.541Z,24.20
2022-08-25T19:31:27.886Z,24.10
2022-08-25T19:36:28.773Z,24.00
2022-08-25T19:41:22.796Z,23.90
2022-08-25T19:46:17.546Z,23.80
2022-08-25T19:51:11.927Z,23.70
2022-08-25T19:56:04.985Z,23.60
2022-08-25T20:00:57.475Z,23.50
2022-08-25T20:05:51.381Z,23.40
2022-08-25T20:10:46.164Z,23.30
2022-08-25T20:15:39.476Z,23.30
2022-08-25T20:20:32.526Z,23.30
2022-08-25T20:25:28.160Z,23.10
2022-08-25T20:30:30.507Z,23.10
2022-08-25T20:35:26.552Z,22.90
2022-08-25T20:40:22.828Z,22.90
2022-08-25T20:45:22.029Z,22.80
2022-08-25T20:50:15.465Z,22.80
2022-08-25T20:55:09.527Z,22.70
2022-08-25T21:00:02.614Z,22.70
2022-08-25T21:04:57.148Z,22.60
2022-08-25T21:09:50.573Z,22.50
2022-08-25T21:14:44.477Z,22.50
2022-08-25T21:19:38.942Z,22.50
2022-08-25T21:24:32.196Z,22.40
2022-08-25T21:29:28.709Z,22.40
2022-08-25T21:34:22.869Z,22.40
2022-08-25T21:39:15.195Z,22.40
2022-08-25T21:44:08.333Z,22.40
2022-08-25T21:49:06.105Z,22.40
2022-08-25T21:54:12.133Z,22.40
2022-08-25T21:59:07.076Z,22.50
2022-08-25T22:03:59.740Z,22.40
2022-08-25T22:08:52.290Z,22.40
2022-08-25T22:13:48.365Z,22.40
2022-08-25T22:18:42.769Z,22.40
2022-08-25T22:23:40.028Z,22.20
2022-08-25T22:28:39.413Z,22.20
2022-08-25T22:33:38.603Z,22.20
2022-08-25T22:38:33.080Z,22.10
2022-08-25T22:43:25.340Z,22.10
2022-08-25T22:48:17.650Z,22.00
2022-08-25T22:53:11.204Z,21.90
2022-08-25T22:58:03.597Z,21.80
2022-08-25T23:02:55.935Z,21.70
2022-08-25T23:07:48.235Z,21.70
2022-08-25T23:12:40.780Z,21.70
2022-08-25T23:17:37.492Z,21.60
2022-08-25T23:22:29.721Z,21.60
2022-08-25T23:27:22.914Z,21.60
2022-08-25T23:32:17.944Z,21.40
2022-08-25T23:37:12.485Z,21.30
2022-08-25T23:42:05.142Z,21.30
2022-08-25T23:46:57.928Z,21.30
2022-08-25T23:51:52.943Z,21.30
2022-08-25T23:56:52.224Z,21.30
